Terminal Aerodrome Forecast
Issued by NWS

Home | Current Version | Previous Version | Text Only | Print | Product List | Glossary On
Versions: 1 2 3 4 5 6 7 8 9 10 11 12 13
382
FTUS43 KPAH 081140
TAFCGI
TAF
KCGI 081140Z 0812/0912 29011KT P6SM SCT035 BKN080
     FM081500 31015G24KT 6SM -SHSN OVC035
     FM090000 32012KT P6SM OVC035=

USA.gov is the U.S. government's official web portal to all federal, state and local government web resources and services.